createdAt,value
2023-04-17T00:00:17.032Z,93.71
2023-04-17T00:02:45.074Z,93.45
2023-04-17T00:05:11.954Z,93.39
2023-04-17T00:07:38.811Z,93.33
2023-04-17T00:10:07.818Z,93.34
2023-04-17T00:12:34.807Z,93.51
2023-04-17T00:15:01.459Z,93.32
2023-04-17T00:17:27.965Z,93.26
2023-04-17T00:19:54.528Z,93.23
2023-04-17T00:22:21.143Z,93.65
2023-04-17T00:24:47.638Z,93.66
2023-04-17T00:27:14.057Z,93.81
2023-04-17T00:29:40.605Z,93.49
2023-04-17T00:32:07.536Z,93.73
2023-04-17T00:34:33.973Z,93.07
2023-04-17T00:37:00.424Z,93.33
2023-04-17T00:39:27.190Z,92.95
2023-04-17T00:41:53.765Z,92.94
2023-04-17T00:44:20.890Z,92.48
2023-04-17T00:46:47.681Z,92.47
2023-04-17T00:49:14.160Z,92.37
2023-04-17T00:51:40.778Z,92.05
2023-04-17T00:54:07.807Z,92.35
2023-04-17T00:56:34.329Z,92.52
2023-04-17T00:59:03.866Z,91.97
2023-04-17T01:01:30.439Z,92.14
2023-04-17T01:03:59.794Z,92.31
2023-04-17T01:06:27.038Z,92.04
2023-04-17T01:08:53.957Z,91.89
2023-04-17T01:11:20.429Z,91.74
2023-04-17T01:13:51.365Z,91.97
2023-04-17T01:16:19.042Z,91.94
2023-04-17T01:18:48.178Z,91.94
2023-04-17T01:21:15.176Z,92.03
2023-04-17T01:23:52.762Z,91.95
2023-04-17T01:26:22.863Z,91.90
2023-04-17T01:28:54.194Z,92.16
2023-04-17T01:31:21.215Z,92.04
2023-04-17T01:33:48.686Z,91.97
2023-04-17T01:36:15.809Z,92.33
2023-04-17T01:38:42.460Z,91.87
2023-04-17T01:41:10.119Z,91.92
2023-04-17T01:43:41.972Z,92.24
2023-04-17T01:46:09.161Z,92.36
2023-04-17T01:48:36.577Z,92.56
2023-04-17T01:51:03.745Z,92.36
2023-04-17T01:53:31.236Z,92.34
2023-04-17T01:55:58.509Z,92.15
2023-04-17T01:58:24.940Z,92.21
2023-04-17T02:00:51.974Z,92.42
2023-04-17T02:03:19.069Z,92.38
2023-04-17T02:05:47.245Z,92.05
2023-04-17T02:08:14.604Z,92.13
2023-04-17T02:10:42.152Z,91.75
2023-04-17T02:13:09.189Z,92.05
2023-04-17T02:15:36.813Z,92.21
2023-04-17T02:18:06.092Z,91.94
2023-04-17T02:20:35.956Z,92.08
2023-04-17T02:23:03.896Z,91.73
2023-04-17T02:25:31.395Z,91.85
2023-04-17T02:27:57.956Z,92.02
2023-04-17T02:30:25.583Z,92.21
2023-04-17T02:32:55.146Z,91.93
2023-04-17T02:35:24.839Z,91.54
2023-04-17T02:37:51.759Z,92.18
2023-04-17T02:40:19.253Z,92.11
2023-04-17T02:42:48.838Z,92.03
2023-04-17T02:45:15.468Z,91.74
2023-04-17T02:47:42.885Z,91.79
2023-04-17T02:50:10.731Z,92.07
2023-04-17T02:52:46.143Z,92.19
2023-04-17T02:55:12.610Z,92.35
2023-04-17T02:57:40.838Z,92.09
2023-04-17T03:00:14.725Z,92.13
2023-04-17T03:02:41.509Z,92.17
2023-04-17T03:05:09.161Z,92.43
2023-04-17T03:07:35.798Z,92.16
2023-04-17T03:10:02.736Z,92.45
2023-04-17T03:12:30.422Z,92.50
2023-04-17T03:14:56.843Z,92.55
2023-04-17T03:17:23.384Z,92.67
2023-04-17T03:19:49.942Z,92.48
2023-04-17T03:22:16.458Z,92.31
2023-04-17T03:24:43.024Z,92.82
2023-04-17T03:27:09.987Z,93.00
2023-04-17T03:29:40.713Z,93.13
2023-04-17T03:32:09.599Z,92.79
2023-04-17T03:34:36.105Z,92.67
2023-04-17T03:37:03.675Z,92.82
2023-04-17T03:39:31.110Z,93.26
2023-04-17T03:41:57.591Z,92.89
2023-04-17T03:44:24.080Z,93.42
2023-04-17T03:46:50.496Z,93.46
2023-04-17T03:49:17.260Z,93.27
2023-04-17T03:51:43.963Z,93.72
2023-04-17T03:54:16.478Z,93.51
2023-04-17T03:56:45.265Z,93.42
2023-04-17T03:59:12.586Z,93.47
2023-04-17T04:01:43.775Z,93.52
2023-04-17T04:04:18.181Z,93.42
2023-04-17T04:06:44.948Z,93.84
2023-04-17T04:09:14.673Z,93.28
2023-04-17T04:11:42.188Z,93.73
2023-04-17T04:14:08.891Z,93.52
2023-04-17T04:16:35.522Z,93.79
2023-04-17T04:19:11.761Z,93.82
2023-04-17T04:21:38.755Z,93.83
2023-04-17T04:24:08.580Z,93.59
2023-04-17T04:26:36.879Z,93.51
2023-04-17T04:29:03.705Z,93.79
2023-04-17T04:31:39.887Z,93.91
2023-04-17T04:34:08.914Z,93.81
2023-04-17T04:36:41.778Z,94.18
2023-04-17T04:39:21.573Z,94.06
2023-04-17T04:41:50.750Z,94.07
2023-04-17T04:44:19.874Z,93.79
2023-04-17T04:46:47.747Z,94.16
2023-04-17T04:49:15.220Z,93.93
2023-04-17T04:51:41.856Z,94.08
2023-04-17T04:54:08.914Z,93.97
2023-04-17T04:56:44.957Z,93.80
2023-04-17T04:59:13.438Z,94.25
2023-04-17T05:01:45.363Z,94.05
2023-04-17T05:04:14.131Z,93.99
2023-04-17T05:06:41.517Z,93.71
2023-04-17T05:09:08.451Z,93.96
2023-04-17T05:11:35.045Z,94.41
2023-04-17T05:14:01.663Z,94.47
2023-04-17T05:16:31.222Z,94.38
2023-04-17T05:18:58.456Z,93.77
2023-04-17T05:21:50.958Z,93.80
2023-04-17T05:24:19.893Z,94.10
2023-04-17T05:26:48.636Z,93.84
2023-04-17T05:29:15.364Z,94.08
2023-04-17T05:31:41.944Z,94.07
2023-04-17T05:34:20.041Z,93.82
2023-04-17T05:36:46.583Z,93.76
2023-04-17T05:39:13.993Z,94.22
2023-04-17T05:41:40.580Z,93.58
2023-04-17T05:44:07.253Z,93.91
2023-04-17T05:46:33.671Z,93.57
2023-04-17T05:49:00.277Z,94.04
2023-04-17T05:51:26.989Z,94.21
2023-04-17T05:53:53.682Z,93.97
2023-04-17T05:56:20.991Z,94.05
2023-04-17T05:58:48.484Z,93.39
2023-04-17T06:01:17.326Z,93.83
2023-04-17T06:03:44.010Z,93.67
2023-04-17T06:06:16.451Z,93.96
2023-04-17T06:08:42.860Z,94.08
2023-04-17T06:11:09.723Z,93.66
2023-04-17T06:13:36.861Z,94.06
2023-04-17T06:16:04.180Z,93.88
2023-04-17T06:18:30.821Z,94.15
2023-04-17T06:20:57.429Z,94.11
2023-04-17T06:23:24.292Z,94.39
2023-04-17T06:25:50.865Z,93.87
2023-04-17T06:28:18.450Z,94.18
2023-04-17T06:30:45.429Z,94.32
2023-04-17T06:33:11.868Z,93.54
2023-04-17T06:35:39.199Z,93.86
2023-04-17T06:38:23.632Z,93.77
2023-04-17T06:40:52.484Z,94.16
2023-04-17T06:43:19.288Z,93.90
2023-04-17T06:45:45.724Z,94.29
2023-04-17T06:48:12.541Z,94.32
2023-04-17T06:50:38.989Z,94.24
2023-04-17T06:53:06.402Z,94.70
2023-04-17T06:55:32.806Z,94.78
2023-04-17T06:57:59.215Z,95.09
2023-04-17T07:00:26.031Z,94.55
2023-04-17T07:02:52.503Z,94.57
2023-04-17T07:05:19.982Z,94.07
2023-04-17T07:07:46.460Z,93.90
2023-04-17T07:10:15.682Z,93.21
2023-04-17T07:12:42.229Z,92.62
2023-04-17T07:15:09.696Z,92.54
2023-04-17T07:17:37.928Z,91.75
2023-04-17T07:20:07.700Z,91.60
2023-04-17T07:22:37.044Z,91.75
2023-04-17T07:25:04.565Z,91.55
2023-04-17T07:27:31.075Z,91.07
2023-04-17T07:29:57.687Z,91.44
2023-04-17T07:32:24.641Z,91.38
2023-04-17T07:34:51.145Z,91.58
2023-04-17T07:37:17.814Z,91.32
2023-04-17T07:39:45.239Z,91.69
2023-04-17T07:42:11.697Z,90.94
2023-04-17T07:44:39.023Z,90.53
2023-04-17T07:47:05.553Z,90.69
2023-04-17T07:49:32.339Z,90.55
2023-04-17T07:51:58.829Z,90.63
2023-04-17T07:54:25.553Z,90.70
2023-04-17T07:56:52.034Z,90.74
2023-04-17T07:59:18.500Z,90.56
2023-04-17T08:01:45.050Z,90.51
2023-04-17T08:04:11.736Z,90.49
2023-04-17T08:06:39.036Z,89.75
2023-04-17T08:09:05.502Z,89.25
2023-04-17T08:11:35.689Z,89.12
2023-04-17T08:14:06.504Z,88.74
2023-04-17T08:16:33.445Z,88.48
2023-04-17T08:18:59.938Z,88.17
2023-04-17T08:21:26.692Z,87.52
2023-04-17T08:23:53.097Z,87.37
2023-04-17T08:26:20.523Z,87.36
2023-04-17T08:28:47.074Z,86.72
2023-04-17T08:31:13.944Z,86.55
2023-04-17T08:33:40.644Z,86.47
2023-04-17T08:36:09.659Z,85.75
2023-04-17T08:38:36.514Z,85.91
2023-04-17T08:41:06.074Z,85.09
2023-04-17T08:43:35.320Z,84.50
2023-04-17T08:46:03.003Z,83.69
2023-04-17T08:48:30.519Z,82.94
2023-04-17T08:50:57.036Z,82.90
2023-04-17T08:53:23.498Z,83.17
2023-04-17T08:55:50.075Z,81.03
2023-04-17T08:58:17.784Z,77.96
2023-04-17T09:00:45.229Z,76.80
2023-04-17T09:03:13.823Z,75.54
2023-04-17T09:05:48.466Z,76.47
2023-04-17T09:08:17.114Z,73.69
2023-04-17T09:10:45.894Z,70.19
2023-04-17T09:13:15.685Z,70.78
2023-04-17T09:15:44.042Z,65.62
2023-04-17T09:18:33.012Z,62.77
2023-04-17T09:21:00.879Z,61.45
2023-04-17T09:23:28.894Z,63.68
2023-04-17T09:26:13.596Z,66.21
2023-04-17T09:28:40.780Z,67.10
2023-04-17T09:31:27.588Z,68.25
2023-04-17T09:33:58.246Z,68.97
2023-04-17T09:36:31.585Z,69.15
2023-04-17T09:39:02.303Z,70.02
2023-04-17T09:41:31.614Z,70.54
2023-04-17T09:44:05.235Z,70.31
2023-04-17T09:46:31.659Z,70.34
2023-04-17T09:49:18.672Z,70.20
2023-04-17T09:51:46.368Z,69.98
2023-04-17T09:54:14.953Z,68.59
2023-04-17T09:56:41.521Z,69.13
2023-04-17T09:59:08.802Z,68.96
2023-04-17T10:01:37.802Z,69.12
2023-04-17T10:04:05.517Z,70.00
2023-04-17T10:06:33.007Z,68.98
2023-04-17T10:08:59.989Z,69.24
2023-04-17T10:11:34.155Z,69.22
2023-04-17T10:14:13.597Z,69.27
2023-04-17T10:16:44.968Z,67.88
2023-04-17T10:19:34.127Z,68.45
2023-04-17T10:22:15.918Z,67.97
2023-04-17T10:24:43.048Z,66.00
2023-04-17T10:27:25.005Z,64.65
2023-04-17T10:29:58.418Z,61.95
2023-04-17T10:32:27.715Z,61.50
2023-04-17T10:35:00.834Z,59.91
2023-04-17T10:37:47.355Z,59.23
2023-04-17T10:40:30.664Z,58.21
2023-04-17T10:43:22.572Z,55.08
2023-04-17T10:45:58.560Z,55.89
2023-04-17T10:48:47.724Z,56.26
2023-04-17T10:51:20.410Z,54.23
2023-04-17T10:54:00.187Z,48.91
2023-04-17T10:56:27.630Z,47.69
2023-04-17T10:59:02.074Z,50.58
2023-04-17T11:01:38.009Z,49.61
2023-04-17T11:04:05.194Z,51.03
2023-04-17T11:06:33.097Z,46.67
2023-04-17T11:09:00.490Z,47.98
2023-04-17T11:11:42.979Z,50.17
2023-04-17T11:14:14.388Z,50.78
2023-04-17T11:16:43.243Z,49.47
2023-04-17T11:19:10.594Z,52.77
2023-04-17T11:21:44.776Z,51.80
2023-04-17T11:24:12.051Z,53.40
2023-04-17T11:26:46.154Z,52.28
2023-04-17T11:29:20.409Z,54.18
2023-04-17T11:31:48.327Z,51.05
2023-04-17T11:34:16.193Z,50.90
2023-04-17T11:36:57.135Z,51.53
2023-04-17T11:39:25.538Z,52.42
2023-04-17T11:41:52.674Z,54.08
2023-04-17T11:44:20.563Z,51.35
2023-04-17T11:46:54.887Z,52.05
2023-04-17T11:49:31.724Z,55.08
2023-04-17T11:52:01.983Z,51.99
2023-04-17T11:54:29.402Z,48.54
2023-04-17T11:57:01.307Z,50.50
2023-04-17T11:59:38.787Z,50.38
2023-04-17T12:02:07.364Z,52.44
2023-04-17T12:04:35.367Z,49.26
2023-04-17T12:07:07.240Z,50.70
2023-04-17T12:09:35.499Z,53.05
2023-04-17T12:12:05.573Z,54.23
2023-04-17T12:14:32.612Z,55.29
2023-04-17T12:16:59.375Z,54.90
2023-04-17T12:19:27.211Z,52.08
2023-04-17T12:21:54.403Z,54.78
2023-04-17T12:24:24.036Z,55.04
2023-04-17T12:26:52.354Z,54.89
2023-04-17T12:29:26.517Z,54.18
2023-04-17T12:31:59.288Z,55.78
2023-04-17T12:34:27.235Z,56.99
2023-04-17T12:36:54.299Z,55.59
2023-04-17T12:39:20.770Z,56.45
2023-04-17T12:41:47.276Z,57.63
2023-04-17T12:44:14.333Z,54.10
2023-04-17T12:46:41.120Z,52.05
2023-04-17T12:49:07.656Z,54.56
2023-04-17T12:51:37.591Z,53.97
2023-04-17T12:54:04.346Z,55.71
2023-04-17T12:56:30.835Z,54.98
2023-04-17T12:58:57.277Z,54.67
2023-04-17T13:01:25.156Z,54.85
2023-04-17T13:03:51.833Z,53.57
2023-04-17T13:06:18.544Z,54.65
2023-04-17T13:08:45.012Z,55.30
2023-04-17T13:11:11.473Z,55.43
2023-04-17T13:13:37.875Z,56.38
2023-04-17T13:16:04.814Z,57.21
2023-04-17T13:18:31.310Z,56.92
2023-04-17T13:20:57.809Z,56.38
2023-04-17T13:23:24.200Z,56.42
2023-04-17T13:25:50.652Z,54.27
2023-04-17T13:28:17.148Z,53.23
2023-04-17T13:30:43.659Z,53.06
2023-04-17T13:33:10.261Z,53.13
2023-04-17T13:35:36.661Z,51.54
2023-04-17T13:38:04.537Z,52.15
2023-04-17T13:40:31.193Z,51.00
2023-04-17T13:42:58.354Z,51.90
2023-04-17T13:45:24.869Z,48.77
2023-04-17T13:47:51.457Z,45.93
2023-04-17T13:50:17.940Z,46.40
2023-04-17T13:52:44.447Z,47.17
2023-04-17T13:55:14.640Z,48.56
2023-04-17T13:57:41.577Z,50.58
2023-04-17T14:00:08.701Z,49.89
2023-04-17T14:02:35.374Z,51.59
2023-04-17T14:05:02.219Z,52.48
2023-04-17T14:07:29.976Z,52.93
2023-04-17T14:09:56.455Z,51.70
2023-04-17T14:12:23.602Z,52.60
2023-04-17T14:14:50.212Z,49.82
2023-04-17T14:17:16.726Z,49.95
2023-04-17T14:19:43.185Z,51.54
2023-04-17T14:22:09.653Z,52.41
2023-04-17T14:24:36.068Z,53.24
2023-04-17T14:27:02.518Z,52.82
2023-04-17T14:29:28.990Z,53.52
2023-04-17T14:31:55.526Z,53.71
2023-04-17T14:34:22.136Z,52.33
2023-04-17T14:36:48.757Z,53.45
2023-04-17T14:39:15.613Z,52.26
2023-04-17T14:41:42.296Z,51.80
2023-04-17T14:44:08.904Z,50.59
2023-04-17T14:46:35.649Z,50.23
2023-04-17T14:49:02.340Z,48.93
2023-04-17T14:51:30.587Z,49.99
2023-04-17T14:53:57.473Z,50.35
2023-04-17T14:56:24.170Z,51.34
2023-04-17T14:58:50.702Z,53.94
2023-04-17T15:01:17.261Z,54.17
2023-04-17T15:03:46.768Z,55.57
2023-04-17T15:06:14.984Z,55.56
2023-04-17T15:08:41.713Z,53.09
2023-04-17T15:11:08.884Z,53.64
2023-04-17T15:13:35.927Z,54.05
2023-04-17T15:16:02.590Z,57.28
2023-04-17T15:18:29.154Z,58.55
2023-04-17T15:20:55.909Z,56.09
2023-04-17T15:23:22.849Z,56.28
2023-04-17T15:25:49.470Z,57.56
2023-04-17T15:28:15.967Z,58.99
2023-04-17T15:30:42.670Z,61.15
2023-04-17T15:33:10.240Z,62.71
2023-04-17T15:35:37.317Z,64.04
2023-04-17T15:38:05.120Z,64.30
2023-04-17T15:40:31.619Z,63.80
2023-04-17T15:42:58.100Z,63.57
2023-04-17T15:45:27.137Z,63.26
2023-04-17T15:47:54.560Z,62.11
2023-04-17T15:50:21.796Z,61.65
2023-04-17T15:52:49.295Z,61.07
2023-04-17T15:55:15.843Z,60.70
2023-04-17T15:57:47.084Z,60.41
2023-04-17T16:00:14.192Z,60.95
2023-04-17T16:02:40.751Z,60.86
2023-04-17T16:05:07.808Z,61.30
2023-04-17T16:07:34.308Z,60.07
2023-04-17T16:10:00.708Z,58.59
2023-04-17T16:12:28.183Z,58.07
2023-04-17T16:14:54.778Z,58.61
2023-04-17T16:17:21.306Z,56.27
2023-04-17T16:19:50.380Z,56.66
2023-04-17T16:22:18.417Z,57.91
2023-04-17T16:24:44.863Z,59.33
2023-04-17T16:27:11.429Z,60.39
2023-04-17T16:29:37.919Z,62.34
2023-04-17T16:32:04.476Z,63.12
2023-04-17T16:34:31.017Z,62.86
2023-04-17T16:36:57.426Z,63.24
2023-04-17T16:39:24.028Z,63.64
2023-04-17T16:41:52.194Z,63.77
2023-04-17T16:44:18.675Z,64.83
2023-04-17T16:47:03.140Z,63.78
2023-04-17T16:49:31.639Z,64.18
2023-04-17T16:51:58.996Z,63.05
2023-04-17T16:54:26.111Z,63.09
2023-04-17T16:56:52.597Z,63.55
2023-04-17T16:59:19.153Z,63.81
2023-04-17T17:01:47.112Z,63.49
2023-04-17T17:04:13.773Z,63.37
2023-04-17T17:06:40.352Z,64.39
2023-04-17T17:09:06.777Z,65.66
2023-04-17T17:11:33.362Z,66.34
2023-04-17T17:13:59.817Z,66.68
2023-04-17T17:16:26.340Z,67.14
2023-04-17T17:18:52.836Z,66.89
2023-04-17T17:21:19.301Z,67.58
2023-04-17T17:23:45.849Z,67.37
2023-04-17T17:26:12.520Z,68.37
2023-04-17T17:28:39.186Z,68.14
2023-04-17T17:31:09.566Z,69.29
2023-04-17T17:33:36.511Z,69.83
2023-04-17T17:36:03.213Z,69.17
2023-04-17T17:38:30.760Z,69.26
2023-04-17T17:40:57.476Z,69.40
2023-04-17T17:43:24.250Z,69.20
2023-04-17T17:45:50.988Z,68.58
2023-04-17T17:48:18.217Z,68.74
2023-04-17T17:50:44.822Z,69.51
2023-04-17T17:53:12.492Z,69.45
2023-04-17T17:55:39.889Z,69.54
2023-04-17T17:58:08.204Z,69.89
2023-04-17T18:00:35.420Z,69.86
2023-04-17T18:03:02.136Z,69.66
2023-04-17T18:05:28.767Z,70.07
2023-04-17T18:07:55.430Z,70.30
2023-04-17T18:10:21.902Z,70.21
2023-04-17T18:12:49.147Z,70.34
2023-04-17T18:15:15.789Z,70.57
2023-04-17T18:17:42.698Z,71.08
2023-04-17T18:20:09.723Z,71.94
2023-04-17T18:22:37.958Z,71.82
2023-04-17T18:25:06.214Z,72.01
2023-04-17T18:27:32.878Z,72.60
2023-04-17T18:29:59.315Z,72.80
2023-04-17T18:32:25.895Z,73.03
2023-04-17T18:34:52.391Z,73.47
2023-04-17T18:37:18.868Z,73.75
2023-04-17T18:39:45.413Z,74.47
2023-04-17T18:42:11.980Z,74.96
2023-04-17T18:44:38.476Z,75.24
2023-04-17T18:47:05.255Z,75.23
2023-04-17T18:49:31.738Z,76.36
2023-04-17T18:51:58.324Z,76.54
2023-04-17T18:54:24.837Z,77.25
2023-04-17T18:56:51.393Z,77.47
2023-04-17T18:59:19.896Z,77.52
2023-04-17T19:01:46.539Z,78.42
2023-04-17T19:04:13.401Z,78.67
2023-04-17T19:06:40.184Z,79.05
2023-04-17T19:09:06.729Z,79.12
2023-04-17T19:11:33.524Z,79.07
2023-04-17T19:14:00.107Z,79.01
2023-04-17T19:16:26.802Z,79.54
2023-04-17T19:18:53.369Z,80.07
2023-04-17T19:21:19.770Z,79.84
2023-04-17T19:23:47.752Z,80.35
2023-04-17T19:26:15.687Z,79.96
2023-04-17T19:28:42.273Z,80.29
2023-04-17T19:31:09.267Z,80.13
2023-04-17T19:33:35.933Z,79.78
2023-04-17T19:36:05.016Z,79.63
2023-04-17T19:38:34.191Z,79.68
2023-04-17T19:41:14.672Z,79.50
2023-04-17T19:43:42.450Z,79.37
2023-04-17T19:46:09.322Z,79.42
2023-04-17T19:48:36.758Z,79.15
2023-04-17T19:51:07.690Z,79.22
2023-04-17T19:53:36.239Z,79.32
2023-04-17T19:56:05.287Z,79.25
2023-04-17T19:58:33.122Z,79.18
2023-04-17T20:01:00.958Z,78.93
2023-04-17T20:03:28.678Z,79.20
2023-04-17T20:05:57.210Z,79.27
2023-04-17T20:08:24.386Z,79.53
2023-04-17T20:10:51.006Z,79.37
2023-04-17T20:13:17.532Z,79.36
2023-04-17T20:15:44.162Z,79.37
2023-04-17T20:18:11.256Z,79.65
2023-04-17T20:20:38.799Z,79.23
2023-04-17T20:23:05.562Z,79.42
2023-04-17T20:25:32.086Z,78.99
2023-04-17T20:27:58.588Z,79.26
2023-04-17T20:30:25.416Z,79.10
2023-04-17T20:32:52.443Z,79.04
2023-04-17T20:35:20.863Z,78.96
2023-04-17T20:37:47.396Z,79.16
2023-04-17T20:40:14.281Z,79.12
2023-04-17T20:42:42.053Z,79.03
2023-04-17T20:45:09.966Z,79.06
2023-04-17T20:47:37.708Z,79.10
2023-04-17T20:50:05.297Z,79.14
2023-04-17T20:52:32.952Z,78.99
2023-04-17T20:55:00.894Z,79.25
2023-04-17T20:57:28.548Z,79.35
2023-04-17T20:59:55.374Z,79.44
2023-04-17T21:02:22.035Z,79.26
2023-04-17T21:04:49.503Z,79.38
2023-04-17T21:07:16.498Z,79.58
2023-04-17T21:09:43.000Z,79.68
2023-04-17T21:12:09.465Z,80.02
2023-04-17T21:14:36.568Z,79.79
2023-04-17T21:17:03.101Z,80.12
2023-04-17T21:19:32.198Z,80.24
2023-04-17T21:21:58.648Z,80.00
2023-04-17T21:24:25.361Z,80.25
2023-04-17T21:26:54.013Z,80.57
2023-04-17T21:29:20.552Z,80.54
2023-04-17T21:31:47.000Z,80.63
2023-04-17T21:34:13.855Z,80.91
2023-04-17T21:36:40.621Z,80.99
2023-04-17T21:39:07.256Z,80.90
2023-04-17T21:41:33.817Z,81.01
2023-04-17T21:44:02.392Z,81.40
2023-04-17T21:46:29.232Z,81.48
2023-04-17T21:48:55.948Z,81.79
2023-04-17T21:51:23.148Z,81.65
2023-04-17T21:53:49.603Z,82.40
2023-04-17T21:56:16.037Z,82.31
2023-04-17T21:58:42.545Z,82.41
2023-04-17T22:01:10.136Z,82.79
2023-04-17T22:03:36.637Z,82.89
2023-04-17T22:06:03.669Z,83.04
2023-04-17T22:08:30.279Z,83.51
2023-04-17T22:10:56.739Z,83.83
2023-04-17T22:13:23.154Z,83.59
2023-04-17T22:15:49.632Z,83.78
2023-04-17T22:18:17.524Z,83.74
2023-04-17T22:21:02.450Z,83.85
2023-04-17T22:23:30.578Z,83.99
2023-04-17T22:27:12.377Z,84.43
2023-04-17T22:30:35.434Z,84.43
2023-04-17T22:33:39.462Z,84.60
2023-04-17T22:36:43.260Z,84.88
2023-04-17T22:40:05.885Z,84.97
2023-04-17T22:43:28.483Z,84.87
2023-04-17T22:46:13.959Z,85.18
2023-04-17T22:49:19.635Z,84.94
2023-04-17T22:51:47.162Z,85.01
2023-04-17T22:55:10.264Z,85.08
2023-04-17T22:57:55.370Z,85.00
2023-04-17T23:00:40.687Z,85.17
2023-04-17T23:03:25.528Z,85.41
2023-04-17T23:05:55.130Z,85.38
2023-04-17T23:08:22.613Z,85.30
2023-04-17T23:10:58.698Z,84.89
2023-04-17T23:13:26.668Z,85.02
2023-04-17T23:15:53.894Z,85.37
2023-04-17T23:18:20.364Z,85.10
2023-04-17T23:20:46.879Z,85.14
2023-04-17T23:23:13.375Z,85.16
2023-04-17T23:25:39.791Z,85.78
2023-04-17T23:28:06.270Z,85.93
2023-04-17T23:30:32.675Z,85.78
2023-04-17T23:32:59.125Z,85.50
2023-04-17T23:35:25.774Z,86.02
2023-04-17T23:37:52.259Z,86.36
2023-04-17T23:40:18.659Z,86.11
2023-04-17T23:42:45.802Z,86.31
2023-04-17T23:45:12.230Z,86.20
2023-04-17T23:47:38.676Z,86.26
2023-04-17T23:50:05.481Z,86.11
2023-04-17T23:52:32.528Z,85.92
2023-04-17T23:54:58.940Z,85.48
2023-04-17T23:57:25.415Z,84.35
2023-04-17T23:59:51.879Z,83.54
